^^
Station Historical Data
Daily Summary for January 13, 2017 Units:  Metric    English   Both
« Previous Day
Next Day »
Daily Weekly Monthly Yearly Custom
  High: Low: Average:
Temperature: 35.9 °C 19.5 °C 27.1 °C
Dew Point: 9.9 °C 7.6 °C 8.6 °C
Humidity: 48% 19% 33%
Wind Speed: 30.6km/h 0km/h 13.7km/h
Wind Gust: 37km/h - -
Wind- - SSW
Pressure: 1008.7 hPa 1001.6 hPa -
Precipitation: 0 mm    
Historical Graphs
 
 
Tabular Data for January 13, 2017
Time Temperature Dew Point Pressure Wind Wind Speed Wind Gust Humidity Rainfall Rate (Hourly) solar Conditions
00:02 24.1 °C 8.5 °C 1008.4 hPa SW 14.3 km/h 16.1 km/h 37% 0 mm 0.0 W/m2
00:07 24.1 °C 8.1 °C 1008.4 hPa SW 14.3 km/h 16.1 km/h 36% 0 mm 0.0 W/m2
00:12 24 °C 8.4 °C 1008.7 hPa SSW 14.3 km/h 17.7 km/h 37% 0 mm 0.0 W/m2
00:22 23.8 °C 8.2 °C 1008.7 hPa SSW 13 km/h 16.1 km/h 37% 0 mm 0.0 W/m2
00:27 23.7 °C 8.1 °C 1008.4 hPa SSW 16.3 km/h 17.7 km/h 37% 0 mm 0.0 W/m2
00:32 23.7 °C 8.5 °C 1008.4 hPa SSW 16.3 km/h 19.3 km/h 38% 0 mm 0.0 W/m2
00:37 23.6 °C 8.4 °C 1008.4 hPa SSW 9.7 km/h 17.7 km/h 38% 0 mm 0.0 W/m2
00:47 23.5 °C 8.4 °C 1008.4 hPa SSW 13 km/h 19.3 km/h 38% 0 mm 0.0 W/m2
00:53 23.4 °C 8.3 °C 1008.4 hPa SSW 13 km/h 16.1 km/h 38% 0 mm 0.0 W/m2
01:02 23.3 °C 8.2 °C 1008.4 hPa SSW 11.1 km/h 16.1 km/h 38% 0 mm 0.0 W/m2
01:13 23.2 °C 8.5 °C 1008.4 hPa SSW 14.3 km/h 24.1 km/h 39% 0 mm 0.0 W/m2
01:33 23 °C 8.3 °C 1008.4 hPa SSW 11.1 km/h 12.9 km/h 39% 0 mm 0.0 W/m2
01:43 22.8 °C 8.5 °C 1008.4 hPa SSW 7.9 km/h 9.7 km/h 40% 0 mm 0.0 W/m2
01:48 22.7 °C 8.4 °C 1008.4 hPa SSW 13 km/h 14.5 km/h 40% 0 mm 0.0 W/m2
02:08 22.4 °C 8.5 °C 1008.4 hPa SSW 9.7 km/h 14.5 km/h 41% 0 mm 0.0 W/m2
02:39 21.9 °C 8.4 °C 1008 hPa SSW 6.4 km/h 9.7 km/h 42% 0 mm 0.0 W/m2
02:49 21.6 °C 8.5 °C 1008 hPa SSW 11.1 km/h 11.3 km/h 43% 0 mm 0.0 W/m2
03:04 21.3 °C 8.2 °C 1007.7 hPa SSW 11.1 km/h 11.3 km/h 43% 0 mm 0.0 W/m2
03:09 21.3 °C 8.2 °C 1007.7 hPa SSW 14.3 km/h 14.5 km/h 43% 0 mm 0.0 W/m2
03:24 21.2 °C 8.5 °C 1007.3 hPa SSW 13 km/h 16.1 km/h 44% 0 mm 0.0 W/m2
03:34 21 °C 8.3 °C 1007.7 hPa SSW 14.3 km/h 14.5 km/h 44% 0 mm 0.0 W/m2
03:39 20.9 °C 8.2 °C 1007.3 hPa SSW 14.3 km/h 14.5 km/h 44% 0 mm 0.0 W/m2
03:49 20.8 °C 8.4 °C 1007.3 hPa SSW 13 km/h 14.5 km/h 45% 0 mm 0.0 W/m2
03:54 20.8 °C 8.4 °C 1007.3 hPa SSW 13 km/h 14.5 km/h 45% 0 mm 0.0 W/m2
03:59 20.7 °C 8.3 °C 1007.7 hPa SSW 13 km/h 13 km/h 45% 0 mm 0.0 W/m2
04:04 20.7 °C 8.3 °C 1007.7 hPa SSW 9.7 km/h 11.3 km/h 45% 0 mm 0.0 W/m2
04:09 20.6 °C 8.2 °C 1007.7 hPa SSW 7.9 km/h 9.7 km/h 45% 0 mm 0.0 W/m2
04:15 20.6 °C 8.2 °C 1007.7 hPa SSW 7.9 km/h 9.7 km/h 45% 0 mm 0.0 W/m2
04:20 20.5 °C 8.2 °C 1007.3 hPa SSW 7.9 km/h 8 km/h 45% 0 mm 0.0 W/m2
04:25 20.4 °C 8.4 °C 1007.7 hPa SSW 7.9 km/h 8 km/h 46% 0 mm 0.0 W/m2
04:30 20.4 °C 8.1 °C 1007.3 hPa SSW 7.9 km/h 8 km/h 45% 0 mm 0.0 W/m2
04:35 20.4 °C 8.4 °C 1007.3 hPa SSW 11.1 km/h 11.3 km/h 46% 0 mm 0.0 W/m2
04:51 20.2 °C 8.2 °C 1007.3 hPa SSW 9.7 km/h 11.3 km/h 46% 0 mm 0.0 W/m2
04:56 20.1 °C 8.1 °C 1007.3 hPa SSW 9.7 km/h 11.3 km/h 46% 0 mm 0.0 W/m2
05:01 20.1 °C 8.1 °C 1007.3 hPa SSW 11.1 km/h 12.9 km/h 46% 0 mm 0.0 W/m2
05:21 19.9 °C 8.3 °C 1007.3 hPa SSW 6.4 km/h 11.3 km/h 47% 0 mm 0.0 W/m2
05:41 19.7 °C 8.1 °C 1007.7 hPa SSW 11.1 km/h 11.3 km/h 47% 0 mm 0.0 W/m2
05:46 19.7 °C 8.1 °C 1007.7 hPa SSW 9.7 km/h 14.5 km/h 47% 0 mm 0.0 W/m2
05:51 19.7 °C 8.1 °C 1007.7 hPa SSW 11.1 km/h 11.3 km/h 47% 0 mm 0.0 W/m2
06:01 19.6 °C 8.3 °C 1007.7 hPa SSW 9.7 km/h 11.3 km/h 48% 0 mm 0.0 W/m2
06:11 19.5 °C 8.2 °C 1007.7 hPa SSW 9.7 km/h 11.3 km/h 48% 0 mm 7.0 W/m2
06:22 19.5 °C 8.2 °C 1007.7 hPa SSW 6.4 km/h 9.7 km/h 48% 0 mm 14.0 W/m2
06:31 19.6 °C 8.3 °C 1008 hPa SSW 9.7 km/h 11.3 km/h 48% 0 mm 25.0 W/m2
06:37 19.7 °C 8.4 °C 1008 hPa SSW 4.7 km/h 8 km/h 48% 0 mm 35.0 W/m2
06:42 19.8 °C 8.5 °C 1008 hPa SSW 6.4 km/h 8 km/h 48% 0 mm 46.0 W/m2
07:17 20.6 °C 8.6 °C 1008.4 hPa SSE 13 km/h 13 km/h 46% 0 mm 174.0 W/m2
08:08 21.7 °C 8.9 °C 1008.7 hPa SSW 16.3 km/h 19.3 km/h 44% 0 mm 360.0 W/m2
08:23 22 °C 8.5 °C 1008.4 hPa SSW 14.3 km/h 19.3 km/h 42% 0 mm 410.0 W/m2
08:50 22.8 °C 8.5 °C 1008.4 hPa SSW 14.3 km/h 17.7 km/h 40% 0 mm 496.0 W/m2
09:20 24.2 °C 9 °C 1008.4 hPa SW 16.3 km/h 20.9 km/h 38% 0 mm 594.0 W/m2
10:33 27.7 °C 8.5 °C 1008 hPa SW 19.5 km/h 19.5 km/h 30% 0 mm 807.0 W/m2
10:39 28 °C 8.8 °C 1007.7 hPa SW 14.3 km/h 17.7 km/h 30% 0 mm 817.0 W/m2
10:54 28.7 °C 8.9 °C 1007.7 hPa SW 14.3 km/h 22.5 km/h 29% 0 mm 853.0 W/m2
11:09 29.6 °C 8.6 °C 1007.3 hPa SW 14.3 km/h 20.9 km/h 27% 0 mm 881.0 W/m2
11:14 29.7 °C 8.7 °C 1007.3 hPa SW 14.3 km/h 16.1 km/h 27% 0 mm 889.0 W/m2
11:30 30.2 °C 8.6 °C 1007.3 hPa SW 13 km/h 14.5 km/h 26% 0 mm 921.0 W/m2
11:38 30.6 °C 8.9 °C 1007 hPa SW 13 km/h 19.3 km/h 26% 0 mm 932.0 W/m2
11:55 31.2 °C 8.8 °C 1007 hPa SW 9.7 km/h 17.7 km/h 25% 0 mm 1049.0 W/m2
12:04 31.6 °C 8.6 °C 1007 hPa SW 13 km/h 14.5 km/h 24% 0 mm 983.0 W/m2
12:31 32.1 °C 8.4 °C 1006.7 hPa SSW 11.1 km/h 14.5 km/h 23% 0 mm 979.0 W/m2
12:40 32.3 °C 8.5 °C 1006.3 hPa SW 14.3 km/h 19.3 km/h 23% 0 mm 983.0 W/m2
12:49 32.4 °C 9.2 °C 1006.3 hPa SW 3.2 km/h 4.8 km/h 24% 0 mm 984.0 W/m2
13:00 32.6 °C 9.4 °C 1006.3 hPa Calm   9.7 km/h 24% 0 mm 983.0 W/m2
13:06 32.7 °C 9.5 °C 1006 hPa SW 7.9 km/h 14.5 km/h 24% 0 mm 984.0 W/m2
13:15 33.2 °C 9.3 °C 1005.6 hPa SW 6.4 km/h 14.5 km/h 23% 0 mm 983.0 W/m2
13:20 33.4 °C 9.4 °C 1005.6 hPa SW 14.3 km/h 17.7 km/h 23% 0 mm 983.0 W/m2
13:30 33.9 °C 9.2 °C 1005.3 hPa Calm   14.5 km/h 22% 0 mm 977.0 W/m2
13:35 34.1 °C 9.4 °C 1005.3 hPa Calm   14.5 km/h 22% 0 mm 974.0 W/m2
13:41 34.1 °C 9.4 °C 1005.3 hPa Calm     22% 0 mm 970.0 W/m2
13:51 34.2 °C 9.4 °C 1005.3 hPa SW 14.3 km/h 14.5 km/h 22% 0 mm 967.0 W/m2
14:01 34.4 °C 9.6 °C 1005 hPa SSW 13 km/h 17.7 km/h 22% 0 mm 954.0 W/m2
14:12 34.6 °C 9.8 °C 1005 hPa SSW 22.7 km/h 29 km/h 22% 0 mm 940.0 W/m2
14:21 34.8 °C 9.9 °C 1004.6 hPa SSW 14.3 km/h 24.1 km/h 22% 0 mm 923.0 W/m2
14:27 35 °C 9.4 °C 1004.6 hPa SSW 11.1 km/h 20.9 km/h 21% 0 mm 919.0 W/m2
14:32 34.9 °C 9.3 °C 1004.3 hPa SSW 14.3 km/h 25.7 km/h 21% 0 mm 914.0 W/m2
14:39 34.9 °C 9.3 °C 1004.3 hPa SSW 17.7 km/h 24.1 km/h 21% 0 mm 900.0 W/m2
14:56 35 °C 9.4 °C 1003.6 hPa SSW 20.9 km/h 25.7 km/h 21% 0 mm 870.0 W/m2
15:12 35.3 °C 8.9 °C 1003.3 hPa SSW 24.1 km/h 33.8 km/h 20% 0 mm 837.0 W/m2
15:57 35.9 °C 9.4 °C 1002.6 hPa SSW 17.7 km/h 24.1 km/h 20% 0 mm 729.0 W/m2
16:03 35.9 °C 9.4 °C 1002.3 hPa South 20.9 km/h 33.8 km/h 20% 0 mm 710.0 W/m2
16:17 35.8 °C 9.3 °C 1001.9 hPa South 19.5 km/h 25.7 km/h 20% 0 mm 675.0 W/m2
16:42 35.9 °C 8.7 °C 1001.6 hPa SSW 19.5 km/h 22.5 km/h 19% 0 mm 591.0 W/m2
16:51 35.7 °C 8.5 °C 1001.6 hPa Calm   3.2 km/h 19% 0 mm 561.0 W/m2
17:16 35.4 °C 8.3 °C 1001.6 hPa South 13 km/h 16.1 km/h 19% 0 mm 473.0 W/m2
17:41 35.5 °C 8.3 °C 1001.6 hPa South 19.5 km/h 24.1 km/h 19% 0 mm 390.0 W/m2
18:01 35.4 °C 8.3 °C 1001.6 hPa SSW 17.7 km/h 22.5 km/h 19% 0 mm 313.0 W/m2
18:06 35.3 °C 8.2 °C 1001.6 hPa SSW 16.3 km/h 16.3 km/h 19% 0 mm 297.0 W/m2
18:47 34.8 °C 7.8 °C 1001.9 hPa SSW 14.3 km/h 22.5 km/h 19% 0 mm 135.0 W/m2
19:04 34.6 °C 7.6 °C 1001.9 hPa South 16.3 km/h 24.1 km/h 19% 0 mm 83.0 W/m2
19:09 34.3 °C 8.1 °C 1001.9 hPa South 16.3 km/h 35.4 km/h 20% 0 mm 67.0 W/m2
19:21 33.8 °C 7.7 °C 1002.3 hPa South 24.1 km/h 27.4 km/h 20% 0 mm 25.0 W/m2
19:32 33.3 °C 8.7 °C 1002.3 hPa SSW 14.3 km/h 29 km/h 22% 0 mm 16.0 W/m2
19:45 32.3 °C 9.2 °C 1002.9 hPa SSW 24.1 km/h 30.6 km/h 24% 0 mm 9.0 W/m2
19:56 31.8 °C 9.3 °C 1002.9 hPa South 22.7 km/h 33.8 km/h 25% 0 mm 0.0 W/m2
20:07 31.5 °C 8.5 °C 1002.9 hPa SSW 17.7 km/h 30.6 km/h 24% 0 mm 0.0 W/m2
20:22 30.6 °C 8.9 °C 1003.3 hPa South 30.6 km/h 30.6 km/h 26% 0 mm 0.0 W/m2
20:36 29.8 °C 7.7 °C 1003.6 hPa SSW 20.9 km/h 37 km/h 25% 0 mm 0.0 W/m2
20:50 28.8 °C 9 °C 1003.9 hPa SW 19.5 km/h 29 km/h 29% 0 mm 0.0 W/m2
21:01 28.1 °C 8.9 °C 1003.9 hPa SSW 19.5 km/h 32.2 km/h 30% 0 mm 0.0 W/m2
21:11 27.5 °C 8.9 °C 1003.9 hPa SSW 19.5 km/h 29 km/h 31% 0 mm 0.0 W/m2
21:19 27.1 °C 9 °C 1004.3 hPa SSW 19.5 km/h 27.4 km/h 32% 0 mm 0.0 W/m2
21:30 26.6 °C 8.5 °C 1004.3 hPa SSW 25.9 km/h 29 km/h 32% 0 mm 0.0 W/m2
21:40 26.1 °C 8.6 °C 1004.6 hPa SSW 25.9 km/h 30.6 km/h 33% 0 mm 0.0 W/m2
21:49 25.7 °C 8.7 °C 1004.6 hPa SW 25.9 km/h 29 km/h 34% 0 mm 0.0 W/m2
23:02 23.9 °C 8.7 °C 1006 hPa SSW 24.1 km/h 27.4 km/h 38% 0 mm 0.0 W/m2
23:17 23.7 °C 8.5 °C 1006 hPa SSW 16.3 km/h 20.9 km/h 38% 0 mm 0.0 W/m2
23:23 23.6 °C 8.4 °C 1006 hPa SSW 17.7 km/h 24.1 km/h 38% 0 mm 0.0 W/m2
Canyon Roadhouse, Fishriver Canyon, Namibia
Compliments of Weather Underground - 2.25 mb